createdAt,value
2018-07-10T00:00:44.762Z,4.10
2018-07-10T00:04:29.591Z,3.33
2018-07-10T00:07:44.308Z,3.23
2018-07-10T00:11:30.690Z,3.53
2018-07-10T00:14:01.217Z,3.37
2018-07-10T00:16:31.991Z,3.10
2018-07-10T00:19:02.013Z,3.47
2018-07-10T00:21:32.672Z,3.10
2018-07-10T00:24:04.032Z,2.80
2018-07-10T00:26:34.426Z,3.77
2018-07-10T00:29:05.042Z,3.30
2018-07-10T00:31:35.130Z,3.37
2018-07-10T00:34:06.061Z,3.60
2018-07-10T00:36:36.916Z,3.27
2018-07-10T00:39:09.884Z,3.43
2018-07-10T00:41:41.896Z,3.30
2018-07-10T00:44:12.859Z,3.40
2018-07-10T00:46:43.442Z,3.00
2018-07-10T00:49:14.099Z,3.30
2018-07-10T00:51:44.781Z,3.50
2018-07-10T00:54:15.699Z,2.90
2018-07-10T00:56:46.234Z,3.10
2018-07-10T00:59:17.246Z,3.17
2018-07-10T01:01:48.985Z,3.00
2018-07-10T01:04:19.748Z,2.97
2018-07-10T01:06:50.362Z,2.97
2018-07-10T01:09:20.992Z,3.30
2018-07-10T01:11:51.584Z,3.30
2018-07-10T01:14:22.253Z,3.00
2018-07-10T01:16:52.727Z,3.47
2018-07-10T01:19:23.494Z,3.43
2018-07-10T01:21:55.037Z,3.23
2018-07-10T01:24:25.737Z,3.53
2018-07-10T01:26:56.333Z,3.23
2018-07-10T01:29:31.773Z,3.40
2018-07-10T01:32:02.491Z,3.30
2018-07-10T01:34:33.169Z,3.97
2018-07-10T01:37:04.683Z,3.40
2018-07-10T01:39:36.015Z,3.30
2018-07-10T01:42:06.630Z,3.67
2018-07-10T01:44:37.296Z,4.40
2018-07-10T01:47:07.833Z,4.37
2018-07-10T01:49:38.540Z,3.50
2018-07-10T01:52:10.445Z,3.20
2018-07-10T01:54:40.992Z,3.27
2018-07-10T01:57:11.419Z,3.13
2018-07-10T01:59:42.271Z,3.30
2018-07-10T02:02:12.680Z,5.10
2018-07-10T02:04:43.468Z,3.60
2018-07-10T02:07:14.100Z,3.40
2018-07-10T02:09:45.484Z,3.63
2018-07-10T02:12:17.388Z,3.30
2018-07-10T02:14:47.626Z,3.73
2018-07-10T02:17:18.342Z,3.47
2018-07-10T02:19:49.242Z,3.33
2018-07-10T02:22:19.492Z,3.77
2018-07-10T02:24:50.913Z,3.23
2018-07-10T02:27:21.857Z,3.70
2018-07-10T02:29:52.723Z,3.63
2018-07-10T02:32:23.646Z,3.50
2018-07-10T02:34:54.354Z,3.50
2018-07-10T02:37:25.192Z,3.43
2018-07-10T02:39:55.828Z,3.40
2018-07-10T02:42:27.531Z,3.60
2018-07-10T02:44:58.090Z,3.90
2018-07-10T02:47:32.130Z,3.67
2018-07-10T02:50:02.845Z,3.07
2018-07-10T02:52:41.130Z,3.50
2018-07-10T02:55:11.862Z,2.67
2018-07-10T02:57:42.463Z,3.27
2018-07-10T03:00:13.109Z,4.37
2018-07-10T03:02:44.815Z,3.50
2018-07-10T03:05:15.709Z,3.60
2018-07-10T03:07:46.362Z,3.70
2018-07-10T03:10:17.044Z,3.60
2018-07-10T03:12:47.708Z,3.37
2018-07-10T03:15:18.433Z,3.60
2018-07-10T03:17:49.401Z,3.50
2018-07-10T03:20:20.267Z,3.77
2018-07-10T03:22:51.754Z,3.40
2018-07-10T03:25:22.543Z,4.00
2018-07-10T03:27:53.161Z,3.80
2018-07-10T03:30:24.468Z,4.03
2018-07-10T03:32:55.150Z,3.77
2018-07-10T03:35:25.819Z,3.77
2018-07-10T03:37:56.444Z,3.90
2018-07-10T03:40:30.424Z,3.80
2018-07-10T03:43:01.083Z,3.47
2018-07-10T03:45:31.683Z,3.80
2018-07-10T03:48:02.301Z,3.30
2018-07-10T03:50:35.468Z,3.50
2018-07-10T03:53:06.500Z,3.73
2018-07-10T03:55:39.993Z,3.37
2018-07-10T03:58:11.074Z,3.63
2018-07-10T04:00:41.705Z,3.60
2018-07-10T04:03:12.457Z,3.53
2018-07-10T04:05:42.990Z,3.80
2018-07-10T04:08:14.980Z,3.90
2018-07-10T04:10:45.643Z,4.17
2018-07-10T04:13:21.672Z,4.77
2018-07-10T04:15:59.245Z,4.33
2018-07-10T04:18:33.165Z,4.00
2018-07-10T04:21:37.501Z,4.23
2018-07-10T04:24:17.995Z,4.20
2018-07-10T04:27:00.342Z,4.60
2018-07-10T04:29:58.749Z,4.40
2018-07-10T04:32:30.308Z,4.67
2018-07-10T04:35:02.480Z,4.90
2018-07-10T04:37:34.158Z,4.27
2018-07-10T04:40:06.458Z,4.10
2018-07-10T04:42:51.845Z,4.10
2018-07-10T04:45:23.519Z,4.30
2018-07-10T04:47:57.651Z,4.10
2018-07-10T04:50:41.424Z,3.93
2018-07-10T04:53:23.087Z,4.37
2018-07-10T04:55:54.707Z,4.20
2018-07-10T04:58:25.477Z,4.40
2018-07-10T05:01:03.372Z,3.77
2018-07-10T05:03:35.399Z,4.10
2018-07-10T05:06:08.763Z,3.93
2018-07-10T05:08:39.390Z,4.23
2018-07-10T05:11:10.197Z,4.00
2018-07-10T05:13:41.059Z,3.93
2018-07-10T05:16:12.461Z,3.80
2018-07-10T05:18:43.977Z,3.90
2018-07-10T05:21:17.265Z,3.90
2018-07-10T05:23:49.165Z,4.40
2018-07-10T05:26:19.834Z,4.00
2018-07-10T05:28:54.596Z,4.77
2018-07-10T05:31:26.051Z,12.97
2018-07-10T05:33:57.166Z,15.23
2018-07-10T05:36:27.474Z,12.63
2018-07-10T05:39:07.812Z,13.17
2018-07-10T05:41:45.108Z,12.13
2018-07-10T05:44:23.954Z,12.63
2018-07-10T05:47:01.371Z,12.10
2018-07-10T05:49:39.359Z,11.27
2018-07-10T05:52:13.434Z,11.00
2018-07-10T05:54:46.036Z,8.87
2018-07-10T05:57:17.478Z,8.90
2018-07-10T05:59:48.265Z,8.03
2018-07-10T06:02:19.193Z,8.17
2018-07-10T06:04:50.051Z,7.83
2018-07-10T06:07:21.478Z,7.50
2018-07-10T06:09:53.034Z,7.27
2018-07-10T06:12:26.635Z,6.80
2018-07-10T06:14:59.652Z,6.53
2018-07-10T06:17:32.177Z,6.53
2018-07-10T06:20:03.916Z,4.93
2018-07-10T06:22:34.117Z,5.37
2018-07-10T06:25:08.596Z,5.00
2018-07-10T06:27:47.114Z,5.07
2018-07-10T06:30:19.190Z,4.67
2018-07-10T06:33:05.054Z,4.63
2018-07-10T06:35:55.350Z,4.10
2018-07-10T06:38:26.270Z,4.20
2018-07-10T06:40:57.211Z,3.80
2018-07-10T06:43:45.167Z,4.20
2018-07-10T06:46:16.672Z,4.03
2018-07-10T06:48:52.210Z,3.50
2018-07-10T06:51:24.186Z,3.70
2018-07-10T06:54:02.232Z,3.47
2018-07-10T06:56:33.499Z,3.60
2018-07-10T06:59:04.286Z,3.30
2018-07-10T07:01:35.214Z,3.53
2018-07-10T07:04:08.913Z,3.40
2018-07-10T07:06:39.828Z,3.23
2018-07-10T07:09:10.687Z,3.23
2018-07-10T07:11:42.599Z,3.73
2018-07-10T07:14:13.776Z,3.00
2018-07-10T07:16:45.215Z,3.10
2018-07-10T07:19:16.802Z,3.00
2018-07-10T07:22:22.551Z,3.53
2018-07-10T07:24:53.624Z,3.20
2018-07-10T07:27:24.542Z,3.13
2018-07-10T07:29:58.059Z,2.57
2018-07-10T07:32:29.460Z,2.73
2018-07-10T07:35:00.794Z,2.60
2018-07-10T07:37:34.069Z,2.50
2018-07-10T07:40:08.426Z,2.30
2018-07-10T07:42:43.340Z,2.60
2018-07-10T07:45:18.777Z,2.60
2018-07-10T07:47:51.524Z,2.57
2018-07-10T07:50:24.710Z,2.83
2018-07-10T07:52:55.924Z,3.07
2018-07-10T07:55:27.503Z,2.60
2018-07-10T07:57:59.903Z,2.70
2018-07-10T08:00:30.975Z,2.90
2018-07-10T08:03:01.935Z,4.77
2018-07-10T08:05:32.672Z,2.40
2018-07-10T08:08:03.788Z,2.70
2018-07-10T08:10:35.578Z,2.73
2018-07-10T08:13:07.917Z,2.30
2018-07-10T08:15:39.661Z,2.40
2018-07-10T08:18:10.766Z,2.67
2018-07-10T08:20:42.089Z,2.70
2018-07-10T08:23:12.855Z,2.10
2018-07-10T08:25:44.439Z,2.40
2018-07-10T08:28:15.900Z,2.50
2018-07-10T08:30:46.713Z,2.10
2018-07-10T08:33:18.329Z,2.20
2018-07-10T08:35:49.972Z,2.30
2018-07-10T08:38:36.384Z,2.20
2018-07-10T08:41:09.532Z,1.93
2018-07-10T08:43:41.695Z,2.00
2018-07-10T08:46:13.856Z,2.10
2018-07-10T08:48:46.656Z,2.00
2018-07-10T08:51:18.403Z,2.10
2018-07-10T08:53:51.581Z,1.80
2018-07-10T08:56:22.514Z,2.27
2018-07-10T08:58:54.540Z,1.90
2018-07-10T09:01:28.700Z,2.00
2018-07-10T09:04:00.653Z,1.90
2018-07-10T09:06:33.042Z,2.10
2018-07-10T09:09:06.084Z,2.20
2018-07-10T09:11:37.778Z,1.80
2018-07-10T09:14:10.257Z,1.80
2018-07-10T09:16:41.239Z,2.00
2018-07-10T09:19:14.898Z,1.90
2018-07-10T09:22:01.620Z,2.03
2018-07-10T09:24:34.127Z,2.03
2018-07-10T09:27:09.597Z,1.70
2018-07-10T09:29:42.162Z,2.03
2018-07-10T09:32:13.991Z,1.63
2018-07-10T09:34:45.290Z,2.00
2018-07-10T09:37:21.958Z,1.80
2018-07-10T09:39:56.831Z,2.03
2018-07-10T09:42:27.669Z,1.73
2018-07-10T09:44:57.817Z,1.90
2018-07-10T09:47:28.913Z,2.03
2018-07-10T09:49:59.807Z,2.00
2018-07-10T09:52:31.427Z,2.00
2018-07-10T09:55:02.924Z,2.10
2018-07-10T09:57:34.282Z,2.00
2018-07-10T10:00:06.275Z,1.80
2018-07-10T10:02:37.580Z,2.00
2018-07-10T10:05:08.397Z,2.23
2018-07-10T10:07:39.911Z,1.90
2018-07-10T10:10:12.569Z,2.35
2018-07-10T10:12:43.230Z,2.20
2018-07-10T10:15:14.104Z,1.90
2018-07-10T10:17:45.315Z,2.22
2018-07-10T10:20:16.958Z,2.00
2018-07-10T10:22:47.705Z,2.12
2018-07-10T10:25:19.913Z,2.30
2018-07-10T10:30:31.158Z,2.30
2018-07-10T10:33:01.807Z,2.30
2018-07-10T10:35:33.001Z,2.25
2018-07-10T10:38:04.430Z,2.10
2018-07-10T10:40:39.417Z,2.40
2018-07-10T10:43:12.348Z,2.50
2018-07-10T10:45:43.741Z,2.27
2018-07-10T10:48:16.583Z,2.40
2018-07-10T10:50:52.465Z,2.30
2018-07-10T10:53:24.231Z,2.30
2018-07-10T10:55:56.305Z,2.57
2018-07-10T10:58:27.661Z,2.27
2018-07-10T11:00:58.478Z,2.47
2018-07-10T11:03:29.068Z,2.37
2018-07-10T11:05:59.949Z,2.50
2018-07-10T11:08:30.580Z,2.20
2018-07-10T11:11:01.948Z,2.40
2018-07-10T11:13:33.745Z,2.20
2018-07-10T11:16:04.605Z,2.50
2018-07-10T11:18:46.380Z,2.33
2018-07-10T11:21:33.661Z,2.43
2018-07-10T11:24:06.127Z,2.53
2018-07-10T11:47:07.402Z,2.43
2018-07-10T11:49:38.137Z,2.30
2018-07-10T11:52:09.280Z,2.10
2018-07-10T11:54:40.115Z,2.10
2018-07-10T11:57:10.880Z,1.97
2018-07-10T11:59:42.334Z,2.40
2018-07-10T12:02:14.292Z,2.07
2018-07-10T12:04:45.454Z,2.00
2018-07-10T12:07:16.251Z,2.07
2018-07-10T12:10:03.181Z,2.20
2018-07-10T12:12:35.545Z,2.30
2018-07-10T12:15:07.156Z,2.27
2018-07-10T12:17:39.515Z,2.23
2018-07-10T12:20:10.417Z,2.20
2018-07-10T12:22:43.503Z,2.20
2018-07-10T12:25:15.084Z,2.43
2018-07-10T12:27:46.961Z,2.20
2018-07-10T12:30:18.823Z,2.27
2018-07-10T12:32:49.955Z,2.27
2018-07-10T12:35:21.271Z,2.10
2018-07-10T12:37:52.960Z,2.13
2018-07-10T12:40:24.677Z,2.37
2018-07-10T12:42:55.771Z,1.90
2018-07-10T12:45:27.857Z,2.27
2018-07-10T12:48:01.293Z,2.60
2018-07-10T12:50:32.924Z,2.40
2018-07-10T12:53:04.578Z,3.07
2018-07-10T12:55:37.823Z,2.07
2018-07-10T12:58:08.439Z,2.10
2018-07-10T13:00:41.103Z,2.20
2018-07-10T13:03:13.871Z,2.10
2018-07-10T13:05:50.831Z,2.47
2018-07-10T13:08:21.735Z,2.40
2018-07-10T13:10:53.570Z,2.20
2018-07-10T13:13:25.748Z,2.10
2018-07-10T13:15:57.762Z,2.43
2018-07-10T13:18:31.254Z,2.43
2018-07-10T13:21:01.613Z,2.30
2018-07-10T13:23:32.879Z,2.20
2018-07-10T13:26:05.393Z,2.50
2018-07-10T13:28:36.933Z,2.10
2018-07-10T13:31:07.564Z,2.50
2018-07-10T13:33:40.040Z,2.33
2018-07-10T13:36:15.331Z,2.73
2018-07-10T13:38:46.147Z,2.50
2018-07-10T13:41:17.396Z,2.20
2018-07-10T13:43:48.458Z,2.30
2018-07-10T13:46:19.824Z,2.97
2018-07-10T13:48:51.659Z,2.40
2018-07-10T13:51:22.949Z,2.30
2018-07-10T13:53:53.998Z,2.37
2018-07-10T13:56:26.424Z,2.20
2018-07-10T13:58:57.808Z,2.10
2018-07-10T14:01:29.148Z,2.10
2018-07-10T14:04:05.868Z,2.33
2018-07-10T14:06:39.872Z,2.30
2018-07-10T14:09:13.159Z,2.00
2018-07-10T14:11:44.309Z,2.30
2018-07-10T14:14:16.847Z,2.20
2018-07-10T14:16:48.298Z,2.40
2018-07-10T14:19:20.071Z,2.50
2018-07-10T14:21:52.316Z,2.70
2018-07-10T14:24:22.984Z,2.30
2018-07-10T14:26:53.885Z,2.50
2018-07-10T14:29:24.701Z,2.40
2018-07-10T14:31:55.726Z,2.53
2018-07-10T14:34:26.840Z,2.47
2018-07-10T14:36:57.887Z,2.57
2018-07-10T14:39:30.683Z,2.80
2018-07-10T14:42:01.410Z,2.50
2018-07-10T14:44:31.677Z,2.73
2018-07-10T14:47:02.964Z,2.70
2018-07-10T14:49:34.381Z,5.30
2018-07-10T14:52:05.380Z,2.77
2018-07-10T14:54:36.191Z,2.63
2018-07-10T14:57:09.097Z,2.60
2018-07-10T14:59:40.043Z,2.40
2018-07-10T15:02:10.786Z,2.40
2018-07-10T15:04:42.388Z,3.20
2018-07-10T15:07:13.237Z,2.50
2018-07-10T15:09:44.330Z,2.53
2018-07-10T15:12:15.382Z,2.40
2018-07-10T15:14:47.241Z,2.67
2018-07-10T15:17:23.591Z,2.90
2018-07-10T15:19:55.453Z,2.70
2018-07-10T15:22:26.254Z,2.50
2018-07-10T15:24:57.125Z,3.40
2018-07-10T15:27:27.735Z,2.40
2018-07-10T15:29:59.460Z,2.87
2018-07-10T15:32:31.997Z,2.60
2018-07-10T15:35:03.232Z,2.80
2018-07-10T15:37:34.077Z,2.47
2018-07-10T15:40:05.431Z,2.50
2018-07-10T15:42:36.283Z,2.80
2018-07-10T15:45:07.158Z,2.50
2018-07-10T15:47:39.269Z,2.63
2018-07-10T15:50:10.323Z,2.77
2018-07-10T15:52:41.149Z,2.20
2018-07-10T15:55:12.132Z,2.40
2018-07-10T15:57:43.191Z,2.90
2018-07-10T16:00:13.834Z,2.80
2018-07-10T16:02:44.504Z,2.87
2018-07-10T16:05:15.656Z,2.60
2018-07-10T16:07:48.696Z,2.50
2018-07-10T16:10:19.436Z,2.47
2018-07-10T16:12:50.106Z,2.70
2018-07-10T16:15:21.447Z,2.47
2018-07-10T16:17:52.549Z,2.80
2018-07-10T16:20:22.951Z,3.00
2018-07-10T16:22:54.899Z,2.70
2018-07-10T16:25:32.046Z,2.53
2018-07-10T16:28:14.474Z,2.60
2018-07-10T16:30:48.631Z,2.83
2018-07-10T16:33:31.897Z,3.10
2018-07-10T16:36:05.028Z,3.00
2018-07-10T16:38:36.711Z,3.00
2018-07-10T16:41:14.380Z,3.07
2018-07-10T16:43:45.934Z,3.07
2018-07-10T16:46:23.375Z,3.37
2018-07-10T16:49:34.209Z,3.53
2018-07-10T16:52:26.387Z,4.20
2018-07-10T16:54:57.421Z,3.43
2018-07-10T16:57:28.398Z,3.10
2018-07-10T16:59:59.203Z,3.50
2018-07-10T17:02:30.511Z,3.17
2018-07-10T17:05:02.821Z,3.00
2018-07-10T17:07:34.019Z,3.10
2018-07-10T17:10:04.900Z,2.67
2018-07-10T17:12:35.722Z,3.20
2018-07-10T17:15:06.448Z,3.10
2018-07-10T17:17:36.945Z,3.00
2018-07-10T17:20:12.146Z,2.80
2018-07-10T17:22:44.930Z,4.20
2018-07-10T17:25:16.478Z,2.67
2018-07-10T17:27:49.785Z,2.33
2018-07-10T17:30:20.674Z,3.30
2018-07-10T17:32:51.499Z,2.67
2018-07-10T17:35:22.486Z,2.70
2018-07-10T17:37:54.781Z,2.73
2018-07-10T17:40:26.163Z,2.60
2018-07-10T17:42:57.041Z,2.63
2018-07-10T17:45:28.004Z,2.50
2018-07-10T17:48:00.526Z,2.60
2018-07-10T17:50:33.098Z,2.87
2018-07-10T17:53:04.430Z,2.60
2018-07-10T17:55:36.965Z,2.83
2018-07-10T17:58:08.518Z,2.67
2018-07-10T18:00:40.069Z,2.47
2018-07-10T18:03:11.072Z,2.57
2018-07-10T18:05:42.465Z,2.20
2018-07-10T18:08:14.248Z,2.17
2018-07-10T18:10:47.930Z,2.20
2018-07-10T18:13:22.931Z,2.47
2018-07-10T18:15:55.352Z,2.20
2018-07-10T18:18:26.729Z,2.40
2018-07-10T18:21:00.091Z,2.30
2018-07-10T18:23:33.099Z,1.90
2018-07-10T18:26:06.098Z,2.10
2018-07-10T18:28:39.721Z,2.50
2018-07-10T18:31:11.574Z,2.60
2018-07-10T18:33:43.234Z,2.47
2018-07-10T18:36:15.579Z,2.47
2018-07-10T18:38:48.765Z,2.17
2018-07-10T18:41:21.069Z,2.00
2018-07-10T18:43:52.120Z,2.40
2018-07-10T18:46:24.315Z,2.30
2018-07-10T18:48:56.612Z,2.63
2018-07-10T18:51:30.126Z,2.27
2018-07-10T18:54:05.602Z,2.10
2018-07-10T18:56:38.953Z,1.80
2018-07-10T18:59:13.905Z,1.63
2018-07-10T19:02:00.750Z,1.80
2018-07-10T19:05:09.678Z,1.43
2018-07-10T19:07:43.752Z,1.70
2018-07-10T19:10:16.270Z,1.60
2018-07-10T19:12:49.583Z,1.70
2018-07-10T19:15:23.816Z,1.70
2018-07-10T19:17:55.930Z,1.80
2018-07-10T19:20:30.463Z,1.73
2018-07-10T19:23:17.482Z,1.70
2018-07-10T19:25:49.739Z,1.90
2018-07-10T19:28:22.758Z,2.17
2018-07-10T19:31:12.483Z,1.70
2018-07-10T19:33:47.448Z,1.77
2018-07-10T19:36:19.433Z,1.93
2018-07-10T19:38:51.560Z,1.90
2018-07-10T19:41:24.897Z,1.87
2018-07-10T19:43:58.627Z,2.10
2018-07-10T19:46:33.135Z,2.20
2018-07-10T19:49:08.608Z,2.00
2018-07-10T19:51:43.052Z,2.10
2018-07-10T19:54:19.369Z,2.03
2018-07-10T19:56:52.483Z,2.23
2018-07-10T19:59:24.688Z,1.60
2018-07-10T20:02:00.330Z,1.70
2018-07-10T20:04:54.355Z,1.60
2018-07-10T20:07:30.843Z,2.00
2018-07-10T20:10:13.341Z,1.90
2018-07-10T20:13:52.549Z,1.90
2018-07-10T20:16:40.302Z,1.60
2018-07-10T20:19:34.717Z,1.83
2018-07-10T20:24:22.870Z,1.70
2018-07-10T20:27:08.491Z,1.70
2018-07-10T20:32:00.484Z,2.00
2018-07-10T20:34:57.629Z,1.57
2018-07-10T20:37:32.283Z,1.73
2018-07-10T20:40:05.382Z,1.70
2018-07-10T20:42:45.467Z,1.70
2018-07-10T20:45:17.754Z,1.87
2018-07-10T20:47:54.559Z,1.60
2018-07-10T20:51:11.262Z,1.60
2018-07-10T20:54:28.303Z,1.70
2018-07-10T20:58:13.609Z,1.60
2018-07-10T21:01:16.448Z,1.70
2018-07-10T21:03:53.215Z,1.60
2018-07-10T21:06:51.813Z,1.80
2018-07-10T21:09:28.805Z,1.80
2018-07-10T21:12:16.257Z,1.70
2018-07-10T21:16:25.211Z,1.87
2018-07-10T21:20:12.778Z,1.40
2018-07-10T21:23:00.699Z,1.57
2018-07-10T21:25:58.607Z,1.70
2018-07-10T21:28:46.764Z,1.37
2018-07-10T21:31:42.419Z,1.80
2018-07-10T21:34:23.224Z,1.30
2018-07-10T21:37:08.165Z,1.50
2018-07-10T21:41:54.391Z,1.50
2018-07-10T21:44:44.588Z,1.83
2018-07-10T21:48:28.755Z,1.90
2018-07-10T21:50:59.826Z,1.60
2018-07-10T21:53:30.866Z,1.60
2018-07-10T21:56:02.359Z,1.80
2018-07-10T21:58:33.924Z,1.60
2018-07-10T22:01:52.185Z,1.80
2018-07-10T22:04:41.440Z,1.80
2018-07-10T22:07:15.986Z,1.63
2018-07-10T22:09:47.136Z,1.67
2018-07-10T22:12:20.954Z,1.57
2018-07-10T22:14:51.985Z,1.70
2018-07-10T22:17:25.878Z,2.07
2018-07-10T22:19:59.073Z,1.60
2018-07-10T22:22:33.761Z,1.80
2018-07-10T22:25:08.579Z,1.60
2018-07-10T22:27:41.738Z,1.90
2018-07-10T22:30:21.691Z,1.77
2018-07-10T22:33:04.424Z,1.47
2018-07-10T22:35:35.369Z,1.60
2018-07-10T22:38:07.170Z,1.80
2018-07-10T22:40:37.877Z,2.07
2018-07-10T22:43:08.525Z,1.80
2018-07-10T22:45:39.748Z,1.67
2018-07-10T22:48:11.052Z,2.00
2018-07-10T22:50:41.405Z,1.80
2018-07-10T22:53:12.165Z,1.87
2018-07-10T22:55:42.926Z,2.10
2018-07-10T22:58:13.949Z,2.20
2018-07-10T23:00:44.790Z,2.00
2018-07-10T23:03:22.455Z,1.87
2018-07-10T23:05:54.046Z,1.97
2018-07-10T23:08:31.701Z,2.20
2018-07-10T23:11:04.761Z,1.87
2018-07-10T23:13:42.516Z,2.10
2018-07-10T23:16:13.550Z,2.23
2018-07-10T23:18:45.821Z,2.10
2018-07-10T23:21:18.356Z,2.20
2018-07-10T23:23:50.508Z,2.00
2018-07-10T23:26:21.763Z,1.77
2018-07-10T23:28:55.093Z,2.00
2018-07-10T23:31:30.244Z,1.70
2018-07-10T23:34:17.951Z,2.10
2018-07-10T23:37:01.703Z,2.13
2018-07-10T23:39:49.091Z,1.93
2018-07-10T23:42:37.626Z,2.00
2018-07-10T23:45:20.541Z,2.00
2018-07-10T23:47:55.198Z,1.80
2018-07-10T23:50:31.009Z,2.10
2018-07-10T23:54:08.891Z,1.73
2018-07-10T23:56:39.172Z,1.70
2018-07-10T23:59:09.956Z,2.03
